createdAt,value
2023-05-09T04:33:04.056Z,100830.84
2023-05-09T04:35:31.890Z,100836.85
2023-05-09T04:37:59.079Z,100838.39
2023-05-09T04:40:27.168Z,100838.23
2023-05-09T04:42:59.852Z,100842.39
2023-05-09T04:45:29.351Z,100841.98
2023-05-09T04:47:57.554Z,100837.30
2023-05-09T04:50:24.770Z,100845.20
2023-05-09T04:52:51.812Z,100845.70
2023-05-09T04:55:19.024Z,100847.46
2023-05-09T04:57:47.817Z,100851.66
2023-05-09T05:00:16.748Z,100853.67
2023-05-09T05:02:43.943Z,100857.89
2023-05-09T05:05:21.749Z,100853.48
2023-05-09T05:07:51.561Z,100851.05
2023-05-09T05:10:20.443Z,100850.64
2023-05-09T05:12:51.021Z,100843.17
2023-05-09T05:15:19.655Z,100846.58
2023-05-09T05:17:47.141Z,100843.64
2023-05-09T05:20:15.526Z,100840.94
2023-05-09T05:22:44.925Z,100843.95
2023-05-09T05:25:12.491Z,100841.81
2023-05-09T05:27:39.971Z,100842.35
2023-05-09T05:30:07.928Z,100842.87
2023-05-09T05:32:35.524Z,100837.50
2023-05-09T05:35:04.468Z,100838.99
2023-05-09T05:37:32.882Z,100841.05
2023-05-09T05:39:59.989Z,100843.17
2023-05-09T05:42:27.233Z,100841.05
2023-05-09T05:44:54.489Z,100841.83
2023-05-09T05:47:21.385Z,100845.06
2023-05-09T05:49:48.871Z,100846.38
2023-05-09T05:52:15.898Z,100844.26
2023-05-09T05:54:44.410Z,100840.04
2023-05-09T05:57:11.547Z,100836.45
2023-05-09T05:59:38.637Z,100842.86
2023-05-09T06:02:06.185Z,100843.72
2023-05-09T06:04:34.754Z,100838.97
2023-05-09T06:07:02.090Z,100841.36
2023-05-09T06:09:29.177Z,100846.15
2023-05-09T06:11:56.091Z,100847.04
2023-05-09T06:14:23.022Z,100848.41
2023-05-09T06:16:50.063Z,100850.77
2023-05-09T06:19:17.040Z,100846.54
2023-05-09T06:21:44.088Z,100848.27
2023-05-09T06:24:19.801Z,100844.92
2023-05-09T06:26:54.776Z,100844.70
2023-05-09T06:29:21.876Z,100843.70
2023-05-09T06:31:48.863Z,100838.63
2023-05-09T06:34:15.859Z,100841.02
2023-05-09T06:36:42.815Z,100840.48
2023-05-09T06:39:10.155Z,100840.41
2023-05-09T06:41:37.222Z,100834.38
2023-05-09T06:44:04.664Z,100829.92
2023-05-09T06:46:32.422Z,100832.14
2023-05-09T06:49:02.164Z,100825.64
2023-05-09T06:51:29.523Z,100825.23
2023-05-09T06:53:56.614Z,100823.41
2023-05-09T06:56:24.965Z,100817.52
2023-05-09T06:58:52.045Z,100817.46
2023-05-09T07:01:19.141Z,100811.52
2023-05-09T07:03:47.703Z,100822.30
2023-05-09T07:06:14.849Z,100818.40
2023-05-09T07:08:42.031Z,100815.18
2023-05-09T07:11:09.215Z,100802.33
2023-05-09T07:13:36.900Z,100803.60
2023-05-09T07:16:04.178Z,100805.05
2023-05-09T07:18:31.259Z,100808.78
2023-05-09T07:20:58.188Z,100815.00
2023-05-09T07:23:27.109Z,100804.86
2023-05-09T07:25:58.695Z,100797.21
2023-05-09T07:28:26.132Z,100800.52
2023-05-09T07:30:55.569Z,100806.89
2023-05-09T07:33:22.740Z,100806.30
2023-05-09T07:35:49.727Z,100805.48
2023-05-09T07:38:16.797Z,100804.33
2023-05-09T07:40:43.789Z,100800.75
2023-05-09T07:43:10.728Z,100795.45
2023-05-09T07:45:37.879Z,100797.40
2023-05-09T07:48:05.674Z,100800.73
2023-05-09T07:50:32.794Z,100791.70
2023-05-09T07:53:00.175Z,100794.85
2023-05-09T07:55:27.090Z,100794.08
2023-05-09T07:57:54.542Z,100794.50
2023-05-09T08:00:23.897Z,100782.54
2023-05-09T08:02:52.022Z,100782.73
2023-05-09T08:05:19.075Z,100791.03
2023-05-09T08:07:46.296Z,100788.27
2023-05-09T08:10:13.481Z,100787.92
2023-05-09T08:12:40.904Z,100784.62
2023-05-09T08:15:08.289Z,100776.44
2023-05-09T08:17:35.630Z,100773.73
2023-05-09T08:20:02.899Z,100771.59
2023-05-09T08:22:29.895Z,100779.13
2023-05-09T08:24:56.803Z,100773.39
2023-05-09T08:27:24.159Z,100771.81
2023-05-09T08:29:51.421Z,100766.77
2023-05-09T08:32:20.142Z,100768.14
2023-05-09T08:34:47.280Z,100770.43
2023-05-09T08:37:15.484Z,100758.98
2023-05-09T08:39:43.102Z,100760.08
2023-05-09T08:42:11.014Z,100756.66
2023-05-09T08:44:38.523Z,100759.19
2023-05-09T08:47:05.671Z,100754.98
2023-05-09T08:49:33.924Z,100755.09
2023-05-09T08:52:01.012Z,100759.34
2023-05-09T08:54:28.119Z,100760.52
2023-05-09T08:56:55.075Z,100756.02
2023-05-09T08:59:22.115Z,100749.79
2023-05-09T09:01:49.126Z,100743.48
2023-05-09T09:04:16.312Z,100744.36
2023-05-09T09:06:43.725Z,100743.39
2023-05-09T09:09:10.937Z,100744.31
2023-05-09T09:11:39.083Z,100738.83
2023-05-09T09:14:15.445Z,100750.48
2023-05-09T09:16:44.019Z,100738.96
2023-05-09T09:19:12.965Z,100735.37
2023-05-09T09:21:43.664Z,100734.36
2023-05-09T09:24:12.984Z,100733.62
2023-05-09T09:26:47.248Z,100732.21
2023-05-09T09:29:14.774Z,100725.69
2023-05-09T09:31:47.528Z,100721.35
2023-05-09T09:34:20.794Z,100719.05
2023-05-09T09:36:48.640Z,100718.44
2023-05-09T09:39:15.654Z,100710.92
2023-05-09T09:41:43.922Z,100713.71
2023-05-09T09:44:15.556Z,100715.11
2023-05-09T09:46:43.480Z,100708.52
2023-05-09T09:49:11.648Z,100713.11
2023-05-09T09:51:38.526Z,100717.45
2023-05-09T09:54:08.985Z,100717.69
2023-05-09T09:56:49.436Z,100718.15
2023-05-09T09:59:22.057Z,100715.98
2023-05-09T10:02:04.847Z,100719.77
2023-05-09T10:04:34.594Z,100714.39
2023-05-09T10:07:06.296Z,100711.44
2023-05-09T10:09:34.016Z,100709.63
2023-05-09T10:12:05.116Z,100713.84
2023-05-09T10:14:35.123Z,100712.92
2023-05-09T10:17:03.749Z,100714.48
2023-05-09T10:19:32.009Z,100709.02
2023-05-09T10:22:02.347Z,100718.35
2023-05-09T10:24:55.749Z,100712.98
2023-05-09T10:27:26.224Z,100717.59
2023-05-09T10:30:04.990Z,100716.05
2023-05-09T10:32:38.132Z,100709.49
2023-05-09T10:35:06.277Z,100709.44
2023-05-09T10:37:33.672Z,100708.86
2023-05-09T10:40:01.542Z,100712.14
2023-05-09T10:42:28.560Z,100712.40
2023-05-09T10:44:55.452Z,100713.30
2023-05-09T10:47:22.392Z,100706.59
2023-05-09T10:49:49.451Z,100707.06
2023-05-09T10:52:16.993Z,100699.80
2023-05-09T10:54:43.949Z,100697.30
2023-05-09T10:57:11.089Z,100700.95
2023-05-09T10:59:40.477Z,100693.39
2023-05-09T11:02:19.290Z,100698.80
2023-05-09T11:04:46.762Z,100700.03
2023-05-09T11:07:24.920Z,100698.16
2023-05-09T11:10:17.696Z,100690.19
2023-05-09T11:12:58.474Z,100692.16
2023-05-09T11:15:27.761Z,100690.98
2023-05-09T11:18:08.285Z,100688.14
2023-05-09T11:20:35.872Z,100676.61
2023-05-09T11:23:06.146Z,100676.67
2023-05-09T11:25:33.129Z,100675.20
2023-05-09T11:28:02.848Z,100670.68
2023-05-09T11:30:43.822Z,100680.98
2023-05-09T11:33:45.179Z,100674.40
2023-05-09T11:36:29.705Z,100676.45
2023-05-09T11:39:07.172Z,100671.89
2023-05-09T11:41:43.961Z,100667.24
2023-05-09T11:44:20.727Z,100667.63
2023-05-09T11:46:48.639Z,100670.83
2023-05-09T11:49:15.611Z,100660.50
2023-05-09T11:51:42.724Z,100659.43
2023-05-09T11:54:10.639Z,100658.09
2023-05-09T11:56:40.628Z,100657.77
2023-05-09T11:59:07.846Z,100654.08
2023-05-09T12:01:34.840Z,100653.14
2023-05-09T12:04:02.229Z,100657.52
2023-05-09T12:06:30.167Z,100651.07
2023-05-09T12:09:00.026Z,100645.48
2023-05-09T12:11:27.210Z,100650.10
2023-05-09T12:13:54.957Z,100648.57
2023-05-09T12:16:22.037Z,100648.88
2023-05-09T12:18:50.672Z,100646.38
2023-05-09T12:21:18.522Z,100647.62
2023-05-09T12:23:47.471Z,100639.95
2023-05-09T12:26:15.960Z,100640.45
2023-05-09T12:28:42.910Z,100640.60
2023-05-09T12:31:09.814Z,100638.23
2023-05-09T12:33:38.748Z,100628.61
2023-05-09T12:36:13.231Z,100625.60
2023-05-09T12:38:40.785Z,100626.78
2023-05-09T12:41:15.406Z,100630.46
2023-05-09T12:43:48.007Z,100625.43
2023-05-09T12:46:19.754Z,100621.52
2023-05-09T12:48:47.730Z,100621.27
2023-05-09T12:51:21.684Z,100621.00
2023-05-09T12:53:48.786Z,100612.11
2023-05-09T12:56:17.321Z,100607.30
2023-05-09T12:58:51.788Z,100603.70
2023-05-09T13:01:19.593Z,100600.02
2023-05-09T13:03:54.467Z,100606.27
2023-05-09T13:06:21.726Z,100608.11
2023-05-09T13:09:01.571Z,100609.98
2023-05-09T13:11:29.184Z,100608.12
2023-05-09T13:13:56.040Z,100603.80
2023-05-09T13:16:23.230Z,100606.95
2023-05-09T13:18:50.168Z,100608.71
2023-05-09T13:21:18.276Z,100606.51
2023-05-09T13:23:45.786Z,100605.13
2023-05-09T13:26:12.752Z,100610.10
2023-05-09T13:28:39.747Z,100606.89
2023-05-09T13:31:07.074Z,100596.08
2023-05-09T13:33:34.180Z,100598.96
2023-05-09T13:36:01.277Z,100600.92
2023-05-09T13:38:31.081Z,100605.64
2023-05-09T13:40:58.670Z,100600.47
2023-05-09T13:43:25.563Z,100597.64
2023-05-09T13:45:52.427Z,100596.27
2023-05-09T13:48:19.401Z,100596.23
2023-05-09T13:50:46.868Z,100593.51
2023-05-09T13:53:13.887Z,100593.62
2023-05-09T13:55:40.840Z,100599.50
2023-05-09T13:58:07.759Z,100592.44
2023-05-09T14:00:34.687Z,100590.89
2023-05-09T14:03:02.722Z,100586.00
2023-05-09T14:05:32.927Z,100592.11
2023-05-09T14:08:01.679Z,100587.62
2023-05-09T14:10:30.120Z,100587.44
2023-05-09T14:12:57.371Z,100582.04
2023-05-09T14:15:24.431Z,100582.09
2023-05-09T14:17:51.578Z,100580.64
2023-05-09T14:20:20.780Z,100578.55
2023-05-09T14:22:48.323Z,100583.89
2023-05-09T14:25:15.425Z,100587.42
2023-05-09T14:27:42.552Z,100589.47
2023-05-09T14:30:10.402Z,100590.33
2023-05-09T14:32:37.551Z,100586.31
2023-05-09T14:35:05.390Z,100582.51
2023-05-09T14:37:34.129Z,100587.95
2023-05-09T14:40:05.596Z,100591.16
2023-05-09T14:42:33.465Z,100588.55
2023-05-09T14:45:00.489Z,100585.44
2023-05-09T14:47:27.732Z,100587.11
2023-05-09T14:49:55.320Z,100591.45
2023-05-09T14:52:22.188Z,100588.79
2023-05-09T14:54:49.296Z,100588.95
2023-05-09T14:57:16.340Z,100584.98
2023-05-09T14:59:43.294Z,100582.25
2023-05-09T15:02:10.241Z,100588.23
2023-05-09T15:04:37.279Z,100586.83
2023-05-09T15:07:06.105Z,100580.73
2023-05-09T15:09:33.985Z,100582.59
2023-05-09T15:12:00.946Z,100584.34
2023-05-09T15:14:28.017Z,100582.35
2023-05-09T15:16:55.474Z,100582.86
2023-05-09T15:19:22.644Z,100577.35
2023-05-09T15:21:49.677Z,100576.55
2023-05-09T15:24:17.224Z,100579.82
2023-05-09T15:26:44.511Z,100576.77
2023-05-09T15:29:11.408Z,100578.27
2023-05-09T15:31:38.266Z,100579.52
2023-05-09T15:34:06.812Z,100580.30
2023-05-09T15:36:34.621Z,100580.60
2023-05-09T15:39:01.570Z,100578.56
2023-05-09T15:41:28.821Z,100577.05
2023-05-09T15:43:55.945Z,100576.65
2023-05-09T15:46:23.159Z,100575.84
2023-05-09T15:48:50.446Z,100576.99
2023-05-09T15:51:17.486Z,100580.04
2023-05-09T15:53:44.449Z,100578.75
2023-05-09T15:56:11.471Z,100582.34
2023-05-09T15:58:39.066Z,100578.38
2023-05-09T16:01:06.375Z,100578.38
2023-05-09T16:03:34.987Z,100578.41
2023-05-09T16:06:02.108Z,100575.35
2023-05-09T16:08:29.366Z,100576.09
2023-05-09T16:10:56.507Z,100576.23
2023-05-09T16:13:24.116Z,100576.00
2023-05-09T16:15:51.269Z,100572.52
2023-05-09T16:18:18.951Z,100569.23
2023-05-09T16:20:45.848Z,100576.05
2023-05-09T16:23:13.296Z,100573.91
2023-05-09T16:25:40.644Z,100578.05
2023-05-09T16:28:08.563Z,100571.13
2023-05-09T16:30:36.338Z,100577.40
2023-05-09T16:33:03.390Z,100571.29
2023-05-09T16:35:30.660Z,100574.77
2023-05-09T16:38:01.075Z,100573.52
2023-05-09T16:40:28.640Z,100571.71
2023-05-09T16:42:55.864Z,100575.57
2023-05-09T16:45:22.971Z,100573.50
2023-05-09T16:50:44.968Z,100576.31
2023-05-09T16:53:11.774Z,100579.86
2023-05-09T16:55:38.387Z,100579.11
2023-05-09T16:58:06.291Z,100582.80
2023-05-09T17:00:33.550Z,100582.75
2023-05-09T17:03:00.010Z,100584.80
2023-05-09T17:05:26.813Z,100586.77
2023-05-09T17:07:53.492Z,100587.79
2023-05-09T17:10:20.564Z,100585.92
2023-05-09T17:12:47.297Z,100583.48
2023-05-09T17:15:13.987Z,100590.27
2023-05-09T17:17:41.192Z,100587.61
2023-05-09T17:20:11.722Z,100591.69
2023-05-09T17:22:38.616Z,100590.63
2023-05-09T17:25:06.298Z,100596.49
2023-05-09T17:27:32.904Z,100595.97
2023-05-09T17:29:59.328Z,100596.86
2023-05-09T17:32:25.830Z,100596.91
2023-05-09T17:34:52.924Z,100594.70
2023-05-09T17:37:19.401Z,100596.34
2023-05-09T17:39:46.449Z,100593.66
2023-05-09T17:42:12.751Z,100597.54
2023-05-09T17:44:39.232Z,100595.58
2023-05-09T17:47:06.177Z,100593.85
2023-05-09T17:49:33.132Z,100592.02
2023-05-09T17:51:59.603Z,100596.30
2023-05-09T17:54:26.353Z,100595.64
2023-05-09T17:56:54.814Z,100598.83
2023-05-09T17:59:21.426Z,100597.33
2023-05-09T18:01:47.614Z,100600.20
2023-05-09T18:04:13.842Z,100598.05
2023-05-09T18:06:40.335Z,100598.31
2023-05-09T18:09:06.824Z,100600.23
2023-05-09T18:11:33.843Z,100596.65
2023-05-09T18:14:00.209Z,100596.76
2023-05-09T18:16:26.515Z,100593.96
2023-05-09T18:18:53.161Z,100594.95
2023-05-09T18:21:19.489Z,100593.26
2023-05-09T18:23:45.755Z,100591.55
2023-05-09T18:26:11.962Z,100589.98
2023-05-09T18:28:41.114Z,100591.55
2023-05-09T18:31:08.747Z,100584.61
2023-05-09T18:33:36.453Z,100587.05
2023-05-09T18:36:03.571Z,100584.28
2023-05-09T18:38:34.115Z,100581.61
2023-05-09T18:41:00.983Z,100583.08
2023-05-09T18:43:28.387Z,100584.16
2023-05-09T18:45:54.641Z,100581.54
2023-05-09T18:48:21.272Z,100577.01
2023-05-09T18:50:48.320Z,100575.40
2023-05-09T18:53:14.592Z,100575.83
2023-05-09T18:55:42.139Z,100577.94
2023-05-09T18:58:08.404Z,100575.89
2023-05-09T19:00:35.215Z,100579.42
2023-05-09T19:03:01.512Z,100574.89
2023-05-09T19:05:27.904Z,100567.21
2023-05-09T19:07:54.321Z,100568.04
2023-05-09T19:10:20.766Z,100567.36
2023-05-09T19:12:48.532Z,100566.53
2023-05-09T19:15:14.832Z,100569.39
2023-05-09T19:17:41.481Z,100565.52
2023-05-09T19:20:10.920Z,100565.79
2023-05-09T19:22:40.562Z,100567.33
2023-05-09T19:25:08.850Z,100566.41
2023-05-09T19:27:36.360Z,100566.62
2023-05-09T19:30:04.714Z,100566.33
2023-05-09T19:32:31.514Z,100564.55
2023-05-09T19:34:58.170Z,100566.41
2023-05-09T19:37:24.410Z,100569.11
2023-05-09T19:39:50.976Z,100572.98
2023-05-09T19:42:17.156Z,100574.08
2023-05-09T19:44:44.061Z,100568.73
2023-05-09T19:47:10.762Z,100563.88
2023-05-09T19:49:37.848Z,100567.57
2023-05-09T19:52:04.301Z,100561.55
2023-05-09T19:54:31.385Z,100562.50
2023-05-09T19:56:57.557Z,100561.35
2023-05-09T19:59:23.889Z,100562.52
2023-05-09T20:01:50.162Z,100559.95
2023-05-09T20:04:20.983Z,100560.91
2023-05-09T20:06:47.884Z,100563.25
2023-05-09T20:09:17.255Z,100562.79
2023-05-09T20:11:43.516Z,100563.21
2023-05-09T20:14:09.854Z,100561.77
2023-05-09T20:16:36.394Z,100564.40
2023-05-09T20:19:04.672Z,100561.98
2023-05-09T20:21:31.162Z,100557.08
2023-05-09T20:23:57.629Z,100557.05
2023-05-09T20:26:25.193Z,100555.75
2023-05-09T20:28:53.880Z,100552.53
2023-05-09T20:31:20.211Z,100553.00
2023-05-09T20:33:46.432Z,100546.46
2023-05-09T20:36:12.626Z,100543.14
2023-05-09T20:38:38.993Z,100549.57
2023-05-09T20:41:05.224Z,100551.34
2023-05-09T20:43:31.457Z,100550.78
2023-05-09T20:45:57.936Z,100545.86
2023-05-09T20:48:24.176Z,100548.10
2023-05-09T20:50:50.447Z,100542.88
2023-05-09T20:53:16.778Z,100542.58
2023-05-09T20:55:43.213Z,100540.97
2023-05-09T20:58:09.574Z,100543.38
2023-05-09T21:00:35.917Z,100538.90
2023-05-09T21:03:02.669Z,100544.19
2023-05-09T21:05:29.358Z,100543.30
2023-05-09T21:07:55.557Z,100543.11
2023-05-09T21:10:21.775Z,100546.26
2023-05-09T21:12:47.958Z,100546.20
2023-05-09T21:15:15.074Z,100541.52
2023-05-09T21:17:41.477Z,100542.01
2023-05-09T21:20:08.203Z,100540.27
2023-05-09T21:22:35.510Z,100539.78
2023-05-09T21:25:01.670Z,100539.27
2023-05-09T21:27:29.704Z,100538.80
2023-05-09T21:29:55.922Z,100543.25
2023-05-09T21:32:22.452Z,100535.33
2023-05-09T21:34:48.766Z,100535.65
2023-05-09T21:37:15.077Z,100535.20
2023-05-09T21:39:41.266Z,100535.27
2023-05-09T21:42:08.204Z,100531.73
2023-05-09T21:44:35.146Z,100529.52
2023-05-09T21:47:01.593Z,100525.85
2023-05-09T21:49:28.741Z,100521.86
2023-05-09T21:51:55.285Z,100521.06
2023-05-09T21:54:21.526Z,100524.64
2023-05-09T21:56:47.649Z,100521.30
2023-05-09T21:59:13.921Z,100515.17
2023-05-09T22:01:40.218Z,100519.73
2023-05-09T22:04:06.681Z,100517.24
2023-05-09T22:06:33.027Z,100516.23
2023-05-09T22:08:59.266Z,100513.46
2023-05-09T22:11:25.536Z,100514.36
2023-05-09T22:13:51.918Z,100510.53
2023-05-09T22:16:18.197Z,100510.63
2023-05-09T22:18:44.395Z,100510.36
2023-05-09T22:21:10.592Z,100509.20
2023-05-09T22:23:36.847Z,100504.59
2023-05-09T22:26:05.697Z,100502.30
2023-05-09T22:28:32.443Z,100500.97
2023-05-09T22:30:58.729Z,100499.41
2023-05-09T22:33:24.998Z,100499.67
2023-05-09T22:35:51.142Z,100500.45
2023-05-09T22:38:17.679Z,100496.63
2023-05-09T22:40:43.796Z,100501.56
2023-05-09T22:43:10.225Z,100498.39
2023-05-09T22:45:36.524Z,100497.23
2023-05-09T22:48:03.020Z,100491.38
2023-05-09T22:50:29.488Z,100488.95
2023-05-09T22:52:55.707Z,100490.10
2023-05-09T22:55:22.286Z,100488.10
2023-05-09T22:57:48.583Z,100486.98
2023-05-09T23:00:15.279Z,100482.63
2023-05-09T23:02:42.010Z,100482.48
2023-05-09T23:05:08.682Z,100480.67
2023-05-09T23:07:34.955Z,100480.70
2023-05-09T23:10:01.238Z,100480.23
2023-05-09T23:12:27.679Z,100482.98
2023-05-09T23:14:53.884Z,100483.78
2023-05-09T23:17:20.676Z,100482.60
2023-05-09T23:19:46.847Z,100479.70
2023-05-09T23:22:13.063Z,100480.12
2023-05-09T23:24:39.186Z,100481.16
2023-05-09T23:27:05.965Z,100481.51
2023-05-09T23:29:32.555Z,100481.79
2023-05-09T23:31:58.727Z,100484.02
2023-05-09T23:34:24.911Z,100491.16
2023-05-09T23:36:51.197Z,100489.64
2023-05-09T23:39:17.386Z,100489.92
2023-05-09T23:41:44.100Z,100486.05
2023-05-09T23:44:10.680Z,100486.74
2023-05-09T23:46:36.955Z,100485.69
2023-05-09T23:49:03.796Z,100487.92
2023-05-09T23:51:29.946Z,100485.18
2023-05-09T23:53:56.383Z,100484.19
2023-05-09T23:56:22.529Z,100479.92
2023-05-09T23:58:48.760Z,100482.04
